sensor_id;sensor_type;location;lat;lon;timestamp;P1;durP1;ratioP1;P2;durP2;ratioP2
65737;SDS011;52478;51.844;6.582;2023-02-04T00:02:23;9.05;;;2.25;;
65737;SDS011;52478;51.844;6.582;2023-02-04T00:04:49;10.13;;;2.35;;
65737;SDS011;52478;51.844;6.582;2023-02-04T00:07:16;7.60;;;2.08;;
65737;SDS011;52478;51.844;6.582;2023-02-04T00:09:43;7.82;;;1.92;;
65737;SDS011;52478;51.844;6.582;2023-02-04T00:12:11;6.03;;;1.88;;
65737;SDS011;52478;51.844;6.582;2023-02-04T00:14:38;8.70;;;2.22;;
65737;SDS011;52478;51.844;6.582;2023-02-04T00:17:05;9.00;;;2.72;;
65737;SDS011;52478;51.844;6.582;2023-02-04T00:19:34;8.93;;;2.15;;
65737;SDS011;52478;51.844;6.582;2023-02-04T00:22:01;8.38;;;2.40;;
65737;SDS011;52478;51.844;6.582;2023-02-04T00:24:28;8.75;;;2.00;;
65737;SDS011;52478;51.844;6.582;2023-02-04T00:26:54;8.88;;;2.42;;
65737;SDS011;52478;51.844;6.582;2023-02-04T00:29:22;7.55;;;1.98;;
65737;SDS011;52478;51.844;6.582;2023-02-04T00:31:49;9.10;;;2.30;;
65737;SDS011;52478;51.844;6.582;2023-02-04T00:34:15;9.25;;;1.95;;
65737;SDS011;52478;51.844;6.582;2023-02-04T00:36:42;10.32;;;2.38;;
65737;SDS011;52478;51.844;6.582;2023-02-04T00:39:08;9.23;;;2.30;;
65737;SDS011;52478;51.844;6.582;2023-02-04T00:41:35;7.35;;;1.95;;
65737;SDS011;52478;51.844;6.582;2023-02-04T00:44:01;11.02;;;2.60;;
65737;SDS011;52478;51.844;6.582;2023-02-04T00:46:29;7.45;;;1.85;;
65737;SDS011;52478;51.844;6.582;2023-02-04T00:48:55;6.88;;;1.73;;
65737;SDS011;52478;51.844;6.582;2023-02-04T00:51:22;10.25;;;2.55;;
65737;SDS011;52478;51.844;6.582;2023-02-04T00:53:48;9.32;;;2.63;;
65737;SDS011;52478;51.844;6.582;2023-02-04T00:56:15;9.40;;;2.15;;
65737;SDS011;52478;51.844;6.582;2023-02-04T00:58:41;8.38;;;2.20;;
65737;SDS011;52478;51.844;6.582;2023-02-04T01:01:08;8.10;;;1.80;;
65737;SDS011;52478;51.844;6.582;2023-02-04T01:03:35;8.73;;;2.22;;
65737;SDS011;52478;51.844;6.582;2023-02-04T01:06:02;7.63;;;2.20;;
65737;SDS011;52478;51.844;6.582;2023-02-04T01:08:28;8.85;;;2.10;;
65737;SDS011;52478;51.844;6.582;2023-02-04T01:10:55;7.72;;;2.50;;
65737;SDS011;52478;51.844;6.582;2023-02-04T01:13:21;7.93;;;1.98;;
65737;SDS011;52478;51.844;6.582;2023-02-04T01:15:48;9.30;;;2.55;;
65737;SDS011;52478;51.844;6.582;2023-02-04T01:18:14;10.20;;;2.20;;
65737;SDS011;52478;51.844;6.582;2023-02-04T01:20:42;8.80;;;2.03;;
65737;SDS011;52478;51.844;6.582;2023-02-04T01:23:08;8.57;;;2.45;;
65737;SDS011;52478;51.844;6.582;2023-02-04T01:25:35;8.75;;;2.58;;
65737;SDS011;52478;51.844;6.582;2023-02-04T01:28:01;8.73;;;1.80;;
65737;SDS011;52478;51.844;6.582;2023-02-04T01:30:27;8.32;;;2.50;;
65737;SDS011;52478;51.844;6.582;2023-02-04T01:32:54;8.00;;;2.80;;
65737;SDS011;52478;51.844;6.582;2023-02-04T01:35:20;8.68;;;2.65;;
65737;SDS011;52478;51.844;6.582;2023-02-04T01:37:48;9.48;;;2.15;;
65737;SDS011;52478;51.844;6.582;2023-02-04T01:40:15;8.35;;;2.05;;
65737;SDS011;52478;51.844;6.582;2023-02-04T01:42:41;8.70;;;2.00;;
65737;SDS011;52478;51.844;6.582;2023-02-04T01:45:08;10.85;;;2.58;;
65737;SDS011;52478;51.844;6.582;2023-02-04T01:47:36;8.70;;;2.55;;
65737;SDS011;52478;51.844;6.582;2023-02-04T01:50:03;9.98;;;2.17;;
65737;SDS011;52478;51.844;6.582;2023-02-04T01:52:33;7.68;;;1.95;;
65737;SDS011;52478;51.844;6.582;2023-02-04T01:55:03;9.30;;;2.50;;
65737;SDS011;52478;51.844;6.582;2023-02-04T01:57:30;9.43;;;2.35;;
65737;SDS011;52478;51.844;6.582;2023-02-04T01:59:58;8.82;;;2.28;;
65737;SDS011;52478;51.844;6.582;2023-02-04T02:02:38;10.77;;;2.55;;
65737;SDS011;52478;51.844;6.582;2023-02-04T02:05:07;8.93;;;2.58;;
65737;SDS011;52478;51.844;6.582;2023-02-04T02:07:35;8.18;;;2.15;;
65737;SDS011;52478;51.844;6.582;2023-02-04T02:12:31;8.18;;;1.70;;
65737;SDS011;52478;51.844;6.582;2023-02-04T02:14:57;8.02;;;2.28;;
65737;SDS011;52478;51.844;6.582;2023-02-04T02:17:25;11.32;;;2.38;;
65737;SDS011;52478;51.844;6.582;2023-02-04T02:19:51;10.52;;;2.67;;
65737;SDS011;52478;51.844;6.582;2023-02-04T02:22:20;10.27;;;2.20;;
65737;SDS011;52478;51.844;6.582;2023-02-04T02:24:52;10.13;;;2.33;;
65737;SDS011;52478;51.844;6.582;2023-02-04T02:27:18;9.68;;;2.50;;
65737;SDS011;52478;51.844;6.582;2023-02-04T02:29:45;9.82;;;2.13;;
65737;SDS011;52478;51.844;6.582;2023-02-04T02:32:11;9.35;;;2.50;;
65737;SDS011;52478;51.844;6.582;2023-02-04T02:34:39;10.98;;;2.13;;
65737;SDS011;52478;51.844;6.582;2023-02-04T02:37:08;7.93;;;2.15;;
65737;SDS011;52478;51.844;6.582;2023-02-04T02:39:34;9.43;;;2.53;;
65737;SDS011;52478;51.844;6.582;2023-02-04T02:42:03;8.40;;;2.40;;
65737;SDS011;52478;51.844;6.582;2023-02-04T02:44:30;7.00;;;1.90;;
65737;SDS011;52478;51.844;6.582;2023-02-04T02:49:24;8.55;;;2.03;;
65737;SDS011;52478;51.844;6.582;2023-02-04T02:51:52;9.57;;;2.20;;
65737;SDS011;52478;51.844;6.582;2023-02-04T02:54:19;8.68;;;2.03;;
65737;SDS011;52478;51.844;6.582;2023-02-04T02:56:48;9.82;;;2.30;;
65737;SDS011;52478;51.844;6.582;2023-02-04T02:59:16;9.80;;;2.45;;
65737;SDS011;52478;51.844;6.582;2023-02-04T03:01:43;8.93;;;2.05;;
65737;SDS011;52478;51.844;6.582;2023-02-04T03:04:10;8.07;;;2.17;;
65737;SDS011;52478;51.844;6.582;2023-02-04T03:06:37;8.95;;;2.03;;
65737;SDS011;52478;51.844;6.582;2023-02-04T03:09:04;9.52;;;2.85;;
65737;SDS011;52478;51.844;6.582;2023-02-04T03:11:31;9.50;;;2.28;;
65737;SDS011;52478;51.844;6.582;2023-02-04T03:13:58;8.05;;;2.42;;
65737;SDS011;52478;51.844;6.582;2023-02-04T03:16:27;7.43;;;1.63;;
65737;SDS011;52478;51.844;6.582;2023-02-04T03:18:56;10.00;;;2.22;;
65737;SDS011;52478;51.844;6.582;2023-02-04T03:21:24;8.40;;;2.22;;
65737;SDS011;52478;51.844;6.582;2023-02-04T03:23:50;7.72;;;1.83;;
65737;SDS011;52478;51.844;6.582;2023-02-04T03:26:20;7.35;;;1.98;;
65737;SDS011;52478;51.844;6.582;2023-02-04T03:28:47;9.70;;;2.17;;
65737;SDS011;52478;51.844;6.582;2023-02-04T03:31:14;8.73;;;2.10;;
65737;SDS011;52478;51.844;6.582;2023-02-04T03:33:41;8.55;;;2.10;;
65737;SDS011;52478;51.844;6.582;2023-02-04T03:36:08;8.98;;;2.75;;
65737;SDS011;52478;51.844;6.582;2023-02-04T03:38:34;8.07;;;2.03;;
65737;SDS011;52478;51.844;6.582;2023-02-04T03:41:01;7.57;;;1.88;;
65737;SDS011;52478;51.844;6.582;2023-02-04T03:43:27;8.18;;;2.05;;
65737;SDS011;52478;51.844;6.582;2023-02-04T03:45:54;8.48;;;2.20;;
65737;SDS011;52478;51.844;6.582;2023-02-04T03:48:20;8.52;;;2.10;;
65737;SDS011;52478;51.844;6.582;2023-02-04T03:50:48;9.88;;;2.08;;
65737;SDS011;52478;51.844;6.582;2023-02-04T03:53:14;8.48;;;2.08;;
65737;SDS011;52478;51.844;6.582;2023-02-04T03:55:41;6.30;;;1.90;;
65737;SDS011;52478;51.844;6.582;2023-02-04T03:58:07;8.65;;;2.00;;
65737;SDS011;52478;51.844;6.582;2023-02-04T04:00:34;10.90;;;2.42;;
65737;SDS011;52478;51.844;6.582;2023-02-04T04:03:00;8.15;;;2.03;;
65737;SDS011;52478;51.844;6.582;2023-02-04T04:05:27;7.72;;;2.25;;
65737;SDS011;52478;51.844;6.582;2023-02-04T04:07:54;9.32;;;2.05;;
65737;SDS011;52478;51.844;6.582;2023-02-04T04:10:21;8.93;;;2.00;;
65737;SDS011;52478;51.844;6.582;2023-02-04T04:12:47;9.77;;;3.00;;
65737;SDS011;52478;51.844;6.582;2023-02-04T04:15:14;7.93;;;1.77;;
65737;SDS011;52478;51.844;6.582;2023-02-04T04:17:40;7.18;;;2.15;;
65737;SDS011;52478;51.844;6.582;2023-02-04T04:20:07;7.95;;;2.35;;
65737;SDS011;52478;51.844;6.582;2023-02-04T04:22:34;9.10;;;2.40;;
65737;SDS011;52478;51.844;6.582;2023-02-04T04:25:02;9.98;;;1.70;;
65737;SDS011;52478;51.844;6.582;2023-02-04T04:27:29;9.80;;;2.17;;
65737;SDS011;52478;51.844;6.582;2023-02-04T04:29:55;9.98;;;1.90;;
65737;SDS011;52478;51.844;6.582;2023-02-04T04:32:22;8.50;;;2.10;;
65737;SDS011;52478;51.844;6.582;2023-02-04T04:34:49;10.20;;;2.00;;
65737;SDS011;52478;51.844;6.582;2023-02-04T04:37:15;7.47;;;2.03;;
65737;SDS011;52478;51.844;6.582;2023-02-04T04:39:42;9.38;;;2.20;;
65737;SDS011;52478;51.844;6.582;2023-02-04T04:42:09;7.53;;;2.17;;
65737;SDS011;52478;51.844;6.582;2023-02-04T04:44:36;9.07;;;1.98;;
65737;SDS011;52478;51.844;6.582;2023-02-04T04:47:02;7.63;;;2.10;;
65737;SDS011;52478;51.844;6.582;2023-02-04T04:49:29;8.93;;;2.40;;
65737;SDS011;52478;51.844;6.582;2023-02-04T04:51:55;6.88;;;2.15;;
65737;SDS011;52478;51.844;6.582;2023-02-04T04:54:21;7.28;;;1.83;;
65737;SDS011;52478;51.844;6.582;2023-02-04T04:56:48;10.05;;;2.25;;
65737;SDS011;52478;51.844;6.582;2023-02-04T04:59:16;9.35;;;2.38;;
65737;SDS011;52478;51.844;6.582;2023-02-04T05:01:42;8.18;;;2.33;;
65737;SDS011;52478;51.844;6.582;2023-02-04T05:04:08;9.40;;;2.40;;
65737;SDS011;52478;51.844;6.582;2023-02-04T05:06:35;7.72;;;2.13;;
65737;SDS011;52478;51.844;6.582;2023-02-04T05:09:01;10.48;;;2.88;;
65737;SDS011;52478;51.844;6.582;2023-02-04T05:11:28;7.78;;;2.10;;
65737;SDS011;52478;51.844;6.582;2023-02-04T05:13:55;10.35;;;2.50;;
65737;SDS011;52478;51.844;6.582;2023-02-04T05:16:22;8.60;;;2.10;;
65737;SDS011;52478;51.844;6.582;2023-02-04T05:18:49;7.38;;;2.10;;
65737;SDS011;52478;51.844;6.582;2023-02-04T05:21:15;7.25;;;1.73;;
65737;SDS011;52478;51.844;6.582;2023-02-04T05:23:42;8.32;;;2.00;;
65737;SDS011;52478;51.844;6.582;2023-02-04T05:26:08;6.20;;;1.95;;
65737;SDS011;52478;51.844;6.582;2023-02-04T05:28:34;8.93;;;2.20;;
65737;SDS011;52478;51.844;6.582;2023-02-04T05:31:01;7.53;;;1.92;;
65737;SDS011;52478;51.844;6.582;2023-02-04T05:33:29;8.05;;;1.85;;
65737;SDS011;52478;51.844;6.582;2023-02-04T05:35:55;7.43;;;2.20;;
65737;SDS011;52478;51.844;6.582;2023-02-04T05:38:21;8.85;;;1.65;;
65737;SDS011;52478;51.844;6.582;2023-02-04T05:40:48;8.20;;;1.98;;
65737;SDS011;52478;51.844;6.582;2023-02-04T05:43:14;6.68;;;1.90;;
65737;SDS011;52478;51.844;6.582;2023-02-04T05:45:41;8.35;;;1.90;;
65737;SDS011;52478;51.844;6.582;2023-02-04T05:48:07;9.98;;;2.42;;
65737;SDS011;52478;51.844;6.582;2023-02-04T05:50:35;8.68;;;2.10;;
65737;SDS011;52478;51.844;6.582;2023-02-04T05:53:01;8.57;;;2.10;;
65737;SDS011;52478;51.844;6.582;2023-02-04T05:55:28;6.38;;;1.63;;
65737;SDS011;52478;51.844;6.582;2023-02-04T05:57:54;8.40;;;2.00;;
65737;SDS011;52478;51.844;6.582;2023-02-04T06:00:21;8.75;;;2.42;;
65737;SDS011;52478;51.844;6.582;2023-02-04T06:02:48;6.93;;;1.63;;
65737;SDS011;52478;51.844;6.582;2023-02-04T06:05:14;8.25;;;2.13;;
65737;SDS011;52478;51.844;6.582;2023-02-04T06:07:43;7.07;;;1.80;;
65737;SDS011;52478;51.844;6.582;2023-02-04T06:10:09;9.48;;;2.47;;
65737;SDS011;52478;51.844;6.582;2023-02-04T06:12:36;9.25;;;1.98;;
65737;SDS011;52478;51.844;6.582;2023-02-04T06:15:03;7.47;;;1.75;;
65737;SDS011;52478;51.844;6.582;2023-02-04T06:19:56;9.65;;;2.15;;
65737;SDS011;52478;51.844;6.582;2023-02-04T06:22:22;8.15;;;2.30;;
65737;SDS011;52478;51.844;6.582;2023-02-04T06:24:51;6.93;;;1.73;;
65737;SDS011;52478;51.844;6.582;2023-02-04T06:27:17;8.73;;;2.42;;
65737;SDS011;52478;51.844;6.582;2023-02-04T06:29:47;7.53;;;2.03;;
65737;SDS011;52478;51.844;6.582;2023-02-04T06:32:14;8.20;;;1.80;;
65737;SDS011;52478;51.844;6.582;2023-02-04T06:34:40;11.07;;;2.30;;
65737;SDS011;52478;51.844;6.582;2023-02-04T06:37:06;8.20;;;2.08;;
65737;SDS011;52478;51.844;6.582;2023-02-04T06:39:33;7.75;;;2.10;;
65737;SDS011;52478;51.844;6.582;2023-02-04T06:42:01;9.70;;;2.13;;
65737;SDS011;52478;51.844;6.582;2023-02-04T06:44:27;6.53;;;1.80;;
65737;SDS011;52478;51.844;6.582;2023-02-04T06:46:53;8.32;;;1.90;;
65737;SDS011;52478;51.844;6.582;2023-02-04T06:49:20;7.10;;;1.77;;
65737;SDS011;52478;51.844;6.582;2023-02-04T06:51:49;7.32;;;2.33;;
65737;SDS011;52478;51.844;6.582;2023-02-04T06:54:15;6.85;;;2.10;;
65737;SDS011;52478;51.844;6.582;2023-02-04T06:56:42;7.00;;;2.10;;
65737;SDS011;52478;51.844;6.582;2023-02-04T06:59:10;6.93;;;1.73;;
65737;SDS011;52478;51.844;6.582;2023-02-04T07:01:36;8.35;;;2.03;;
65737;SDS011;52478;51.844;6.582;2023-02-04T07:04:03;7.43;;;1.83;;
65737;SDS011;52478;51.844;6.582;2023-02-04T07:06:29;6.53;;;2.00;;
65737;SDS011;52478;51.844;6.582;2023-02-04T07:08:56;7.43;;;1.70;;
65737;SDS011;52478;51.844;6.582;2023-02-04T07:11:22;9.30;;;2.28;;
65737;SDS011;52478;51.844;6.582;2023-02-04T07:13:49;5.68;;;1.48;;
65737;SDS011;52478;51.844;6.582;2023-02-04T07:16:16;7.95;;;1.75;;
65737;SDS011;52478;51.844;6.582;2023-02-04T07:18:43;5.93;;;1.65;;
65737;SDS011;52478;51.844;6.582;2023-02-04T07:21:09;6.93;;;2.17;;
65737;SDS011;52478;51.844;6.582;2023-02-04T07:23:35;7.60;;;1.65;;
65737;SDS011;52478;51.844;6.582;2023-02-04T07:26:02;7.35;;;1.52;;
65737;SDS011;52478;51.844;6.582;2023-02-04T07:28:28;8.35;;;2.00;;
65737;SDS011;52478;51.844;6.582;2023-02-04T07:30:55;7.60;;;1.73;;
65737;SDS011;52478;51.844;6.582;2023-02-04T07:33:23;6.82;;;1.58;;
65737;SDS011;52478;51.844;6.582;2023-02-04T07:35:49;6.40;;;1.70;;
65737;SDS011;52478;51.844;6.582;2023-02-04T07:38:16;10.00;;;2.15;;
65737;SDS011;52478;51.844;6.582;2023-02-04T07:40:42;6.97;;;1.80;;
65737;SDS011;52478;51.844;6.582;2023-02-04T07:43:08;7.05;;;1.88;;
65737;SDS011;52478;51.844;6.582;2023-02-04T07:45:35;7.35;;;1.80;;
65737;SDS011;52478;51.844;6.582;2023-02-04T07:48:01;7.82;;;1.90;;
65737;SDS011;52478;51.844;6.582;2023-02-04T07:50:29;5.75;;;1.70;;
65737;SDS011;52478;51.844;6.582;2023-02-04T07:52:56;7.85;;;1.92;;
65737;SDS011;52478;51.844;6.582;2023-02-04T07:55:22;8.88;;;1.70;;
65737;SDS011;52478;51.844;6.582;2023-02-04T07:57:48;6.63;;;2.00;;
65737;SDS011;52478;51.844;6.582;2023-02-04T08:00:15;9.68;;;2.38;;
65737;SDS011;52478;51.844;6.582;2023-02-04T08:02:42;8.75;;;2.03;;
65737;SDS011;52478;51.844;6.582;2023-02-04T08:05:08;8.68;;;2.10;;
65737;SDS011;52478;51.844;6.582;2023-02-04T08:10:03;9.43;;;1.50;;
65737;SDS011;52478;51.844;6.582;2023-02-04T08:12:30;7.50;;;1.95;;
65737;SDS011;52478;51.844;6.582;2023-02-04T08:14:57;8.90;;;1.80;;
65737;SDS011;52478;51.844;6.582;2023-02-04T08:17:24;8.20;;;2.05;;
65737;SDS011;52478;51.844;6.582;2023-02-04T08:19:50;7.38;;;2.03;;
65737;SDS011;52478;51.844;6.582;2023-02-04T08:22:16;7.93;;;1.92;;
65737;SDS011;52478;51.844;6.582;2023-02-04T08:24:44;8.27;;;2.13;;
65737;SDS011;52478;51.844;6.582;2023-02-04T08:27:11;8.95;;;1.95;;
65737;SDS011;52478;51.844;6.582;2023-02-04T08:29:37;7.43;;;2.20;;
65737;SDS011;52478;51.844;6.582;2023-02-04T08:32:04;8.50;;;1.85;;
65737;SDS011;52478;51.844;6.582;2023-02-04T08:36:58;7.20;;;2.22;;
65737;SDS011;52478;51.844;6.582;2023-02-04T08:39:24;9.32;;;2.03;;
65737;SDS011;52478;51.844;6.582;2023-02-04T08:41:52;9.63;;;2.03;;
65737;SDS011;52478;51.844;6.582;2023-02-04T08:44:19;8.50;;;2.33;;
65737;SDS011;52478;51.844;6.582;2023-02-04T08:46:45;7.75;;;1.98;;
65737;SDS011;52478;51.844;6.582;2023-02-04T08:49:12;10.15;;;2.20;;
65737;SDS011;52478;51.844;6.582;2023-02-04T08:51:38;7.32;;;1.88;;
65737;SDS011;52478;51.844;6.582;2023-02-04T08:54:05;8.65;;;1.70;;
65737;SDS011;52478;51.844;6.582;2023-02-04T08:56:32;9.05;;;2.17;;
65737;SDS011;52478;51.844;6.582;2023-02-04T08:59:00;8.98;;;2.22;;
65737;SDS011;52478;51.844;6.582;2023-02-04T09:01:27;7.50;;;1.88;;
65737;SDS011;52478;51.844;6.582;2023-02-04T09:03:53;9.57;;;2.25;;
65737;SDS011;52478;51.844;6.582;2023-02-04T09:06:20;8.40;;;2.33;;
65737;SDS011;52478;51.844;6.582;2023-02-04T09:08:46;7.80;;;2.13;;
65737;SDS011;52478;51.844;6.582;2023-02-04T09:11:12;9.60;;;2.20;;
65737;SDS011;52478;51.844;6.582;2023-02-04T09:13:40;7.95;;;2.38;;
65737;SDS011;52478;51.844;6.582;2023-02-04T09:16:07;8.85;;;2.35;;
65737;SDS011;52478;51.844;6.582;2023-02-04T09:18:34;9.05;;;1.95;;
65737;SDS011;52478;51.844;6.582;2023-02-04T09:21:01;9.50;;;2.20;;
65737;SDS011;52478;51.844;6.582;2023-02-04T09:23:28;11.15;;;2.10;;
65737;SDS011;52478;51.844;6.582;2023-02-04T09:28:22;8.80;;;1.77;;
65737;SDS011;52478;51.844;6.582;2023-02-04T09:30:48;12.88;;;2.00;;
65737;SDS011;52478;51.844;6.582;2023-02-04T09:33:16;8.75;;;2.10;;
65737;SDS011;52478;51.844;6.582;2023-02-04T09:35:43;8.70;;;2.03;;
65737;SDS011;52478;51.844;6.582;2023-02-04T09:38:10;9.35;;;2.40;;
65737;SDS011;52478;51.844;6.582;2023-02-04T09:40:38;8.40;;;2.30;;
65737;SDS011;52478;51.844;6.582;2023-02-04T09:43:08;8.35;;;1.80;;
65737;SDS011;52478;51.844;6.582;2023-02-04T09:45:38;8.45;;;2.30;;
65737;SDS011;52478;51.844;6.582;2023-02-04T09:48:05;13.07;;;2.30;;
65737;SDS011;52478;51.844;6.582;2023-02-04T09:50:33;10.15;;;2.55;;
65737;SDS011;52478;51.844;6.582;2023-02-04T09:53:00;9.95;;;2.35;;
65737;SDS011;52478;51.844;6.582;2023-02-04T09:55:29;10.80;;;2.22;;
65737;SDS011;52478;51.844;6.582;2023-02-04T09:57:57;7.97;;;2.20;;
65737;SDS011;52478;51.844;6.582;2023-02-04T10:00:25;11.18;;;2.78;;
65737;SDS011;52478;51.844;6.582;2023-02-04T10:02:52;9.75;;;2.00;;
65737;SDS011;52478;51.844;6.582;2023-02-04T10:05:20;9.32;;;2.40;;
65737;SDS011;52478;51.844;6.582;2023-02-04T10:07:54;9.13;;;2.03;;
65737;SDS011;52478;51.844;6.582;2023-02-04T10:10:21;8.55;;;2.00;;
65737;SDS011;52478;51.844;6.582;2023-02-04T10:12:51;12.02;;;2.40;;
65737;SDS011;52478;51.844;6.582;2023-02-04T10:15:20;9.20;;;2.00;;
65737;SDS011;52478;51.844;6.582;2023-02-04T10:17:47;8.30;;;2.35;;
65737;SDS011;52478;51.844;6.582;2023-02-04T10:20:15;8.32;;;2.50;;
65737;SDS011;52478;51.844;6.582;2023-02-04T10:22:43;8.65;;;1.83;;
65737;SDS011;52478;51.844;6.582;2023-02-04T10:25:13;8.07;;;1.70;;
65737;SDS011;52478;51.844;6.582;2023-02-04T10:27:49;7.82;;;2.10;;
65737;SDS011;52478;51.844;6.582;2023-02-04T10:30:20;10.15;;;2.17;;
65737;SDS011;52478;51.844;6.582;2023-02-04T10:32:48;9.20;;;2.10;;
65737;SDS011;52478;51.844;6.582;2023-02-04T10:35:15;9.00;;;2.38;;
65737;SDS011;52478;51.844;6.582;2023-02-04T10:37:43;7.35;;;1.85;;
65737;SDS011;52478;51.844;6.582;2023-02-04T10:40:27;9.35;;;2.05;;
65737;SDS011;52478;51.844;6.582;2023-02-04T10:42:55;8.63;;;1.90;;
65737;SDS011;52478;51.844;6.582;2023-02-04T10:45:22;8.30;;;2.10;;
65737;SDS011;52478;51.844;6.582;2023-02-04T10:47:50;10.05;;;2.25;;
65737;SDS011;52478;51.844;6.582;2023-02-04T10:50:18;13.60;;;2.67;;
65737;SDS011;52478;51.844;6.582;2023-02-04T10:52:48;9.80;;;2.47;;
65737;SDS011;52478;51.844;6.582;2023-02-04T10:55:16;11.48;;;2.60;;
65737;SDS011;52478;51.844;6.582;2023-02-04T10:57:46;9.35;;;2.42;;
65737;SDS011;52478;51.844;6.582;2023-02-04T11:00:15;12.50;;;2.40;;
65737;SDS011;52478;51.844;6.582;2023-02-04T11:02:43;10.65;;;2.40;;
65737;SDS011;52478;51.844;6.582;2023-02-04T11:05:14;9.02;;;2.05;;
65737;SDS011;52478;51.844;6.582;2023-02-04T11:07:42;13.18;;;2.78;;
65737;SDS011;52478;51.844;6.582;2023-02-04T11:10:11;13.35;;;2.33;;
65737;SDS011;52478;51.844;6.582;2023-02-04T11:12:40;9.60;;;2.03;;
65737;SDS011;52478;51.844;6.582;2023-02-04T11:18:06;8.68;;;2.10;;
65737;SDS011;52478;51.844;6.582;2023-02-04T11:20:34;10.95;;;2.88;;
65737;SDS011;52478;51.844;6.582;2023-02-04T11:23:28;9.93;;;2.15;;
65737;SDS011;52478;51.844;6.582;2023-02-04T11:26:01;9.45;;;2.00;;
65737;SDS011;52478;51.844;6.582;2023-02-04T11:28:37;9.60;;;2.42;;
65737;SDS011;52478;51.844;6.582;2023-02-04T11:31:28;11.68;;;2.50;;
65737;SDS011;52478;51.844;6.582;2023-02-04T11:34:09;10.80;;;2.67;;
65737;SDS011;52478;51.844;6.582;2023-02-04T11:36:54;7.85;;;2.17;;
65737;SDS011;52478;51.844;6.582;2023-02-04T11:39:27;9.13;;;2.05;;
65737;SDS011;52478;51.844;6.582;2023-02-04T11:41:57;9.82;;;2.50;;
65737;SDS011;52478;51.844;6.582;2023-02-04T11:46:52;9.27;;;2.05;;
65737;SDS011;52478;51.844;6.582;2023-02-04T11:49:20;10.10;;;2.22;;
65737;SDS011;52478;51.844;6.582;2023-02-04T11:51:49;9.63;;;2.00;;
65737;SDS011;52478;51.844;6.582;2023-02-04T11:54:16;13.00;;;2.55;;
65737;SDS011;52478;51.844;6.582;2023-02-04T11:56:44;9.30;;;2.40;;
65737;SDS011;52478;51.844;6.582;2023-02-04T11:59:11;10.75;;;2.80;;
65737;SDS011;52478;51.844;6.582;2023-02-04T12:01:39;10.25;;;2.00;;
65737;SDS011;52478;51.844;6.582;2023-02-04T12:04:20;10.88;;;2.50;;
65737;SDS011;52478;51.844;6.582;2023-02-04T12:06:55;8.32;;;2.40;;
65737;SDS011;52478;51.844;6.582;2023-02-04T12:09:23;10.93;;;2.25;;
65737;SDS011;52478;51.844;6.582;2023-02-04T12:11:51;11.55;;;2.40;;
65737;SDS011;52478;51.844;6.582;2023-02-04T12:14:18;10.43;;;2.30;;
65737;SDS011;52478;51.844;6.582;2023-02-04T12:16:45;13.27;;;3.65;;
65737;SDS011;52478;51.844;6.582;2023-02-04T12:19:14;9.13;;;2.40;;
65737;SDS011;52478;51.844;6.582;2023-02-04T12:21:40;9.75;;;2.67;;
65737;SDS011;52478;51.844;6.582;2023-02-04T12:24:07;9.35;;;2.65;;
65737;SDS011;52478;51.844;6.582;2023-02-04T12:26:33;10.07;;;2.55;;
65737;SDS011;52478;51.844;6.582;2023-02-04T12:29:00;10.23;;;2.47;;
65737;SDS011;52478;51.844;6.582;2023-02-04T12:31:27;14.23;;;3.22;;
65737;SDS011;52478;51.844;6.582;2023-02-04T12:33:54;14.88;;;2.80;;
65737;SDS011;52478;51.844;6.582;2023-02-04T12:36:22;10.32;;;2.75;;
65737;SDS011;52478;51.844;6.582;2023-02-04T12:38:48;15.98;;;2.92;;
65737;SDS011;52478;51.844;6.582;2023-02-04T12:41:15;11.68;;;3.05;;
65737;SDS011;52478;51.844;6.582;2023-02-04T12:43:43;10.48;;;2.60;;
65737;SDS011;52478;51.844;6.582;2023-02-04T12:46:10;11.57;;;2.40;;
65737;SDS011;52478;51.844;6.582;2023-02-04T12:48:36;10.70;;;2.50;;
65737;SDS011;52478;51.844;6.582;2023-02-04T12:51:05;13.10;;;2.60;;
65737;SDS011;52478;51.844;6.582;2023-02-04T12:53:32;10.95;;;2.95;;
65737;SDS011;52478;51.844;6.582;2023-02-04T12:55:59;10.27;;;2.60;;
65737;SDS011;52478;51.844;6.582;2023-02-04T12:58:25;13.98;;;2.83;;
65737;SDS011;52478;51.844;6.582;2023-02-04T13:00:52;13.10;;;2.88;;
65737;SDS011;52478;51.844;6.582;2023-02-04T13:03:18;11.90;;;3.08;;
65737;SDS011;52478;51.844;6.582;2023-02-04T13:05:45;13.48;;;3.15;;
65737;SDS011;52478;51.844;6.582;2023-02-04T13:08:11;10.15;;;2.90;;
65737;SDS011;52478;51.844;6.582;2023-02-04T13:10:39;13.60;;;2.85;;
65737;SDS011;52478;51.844;6.582;2023-02-04T13:13:05;12.65;;;2.92;;
65737;SDS011;52478;51.844;6.582;2023-02-04T13:15:32;12.18;;;2.83;;
65737;SDS011;52478;51.844;6.582;2023-02-04T13:17:58;10.88;;;2.72;;
65737;SDS011;52478;51.844;6.582;2023-02-04T13:20:25;9.40;;;2.97;;
65737;SDS011;52478;51.844;6.582;2023-02-04T13:22:51;14.73;;;2.85;;
65737;SDS011;52478;51.844;6.582;2023-02-04T13:25:18;12.55;;;3.17;;
65737;SDS011;52478;51.844;6.582;2023-02-04T13:27:46;14.23;;;2.80;;
65737;SDS011;52478;51.844;6.582;2023-02-04T13:30:12;10.50;;;2.30;;
65737;SDS011;52478;51.844;6.582;2023-02-04T13:32:39;16.10;;;3.10;;
65737;SDS011;52478;51.844;6.582;2023-02-04T13:35:07;20.42;;;3.28;;
65737;SDS011;52478;51.844;6.582;2023-02-04T13:37:34;20.20;;;3.67;;
65737;SDS011;52478;51.844;6.582;2023-02-04T13:40:02;22.42;;;3.90;;
65737;SDS011;52478;51.844;6.582;2023-02-04T13:42:28;13.15;;;3.10;;
65737;SDS011;52478;51.844;6.582;2023-02-04T13:44:56;16.17;;;3.53;;
65737;SDS011;52478;51.844;6.582;2023-02-04T13:47:22;14.30;;;3.45;;
65737;SDS011;52478;51.844;6.582;2023-02-04T13:49:49;13.07;;;3.40;;
65737;SDS011;52478;51.844;6.582;2023-02-04T13:52:15;17.08;;;3.35;;
65737;SDS011;52478;51.844;6.582;2023-02-04T13:54:42;15.45;;;4.00;;
65737;SDS011;52478;51.844;6.582;2023-02-04T13:57:09;13.25;;;3.25;;
65737;SDS011;52478;51.844;6.582;2023-02-04T13:59:35;12.63;;;3.30;;
65737;SDS011;52478;51.844;6.582;2023-02-04T14:02:03;15.13;;;4.25;;
65737;SDS011;52478;51.844;6.582;2023-02-04T14:04:29;14.73;;;3.25;;
65737;SDS011;52478;51.844;6.582;2023-02-04T14:06:56;16.00;;;4.18;;
65737;SDS011;52478;51.844;6.582;2023-02-04T14:09:22;18.42;;;3.70;;
65737;SDS011;52478;51.844;6.582;2023-02-04T14:11:49;17.35;;;3.75;;
65737;SDS011;52478;51.844;6.582;2023-02-04T14:14:15;13.68;;;3.63;;
65737;SDS011;52478;51.844;6.582;2023-02-04T14:16:42;14.45;;;3.95;;
65737;SDS011;52478;51.844;6.582;2023-02-04T14:19:10;14.63;;;2.92;;
65737;SDS011;52478;51.844;6.582;2023-02-04T14:21:36;15.00;;;3.42;;
65737;SDS011;52478;51.844;6.582;2023-02-04T14:24:03;13.70;;;3.67;;
65737;SDS011;52478;51.844;6.582;2023-02-04T14:26:30;11.63;;;3.53;;
65737;SDS011;52478;51.844;6.582;2023-02-04T14:28:56;14.35;;;3.83;;
65737;SDS011;52478;51.844;6.582;2023-02-04T14:31:22;15.60;;;4.15;;
65737;SDS011;52478;51.844;6.582;2023-02-04T14:33:49;14.35;;;3.40;;
65737;SDS011;52478;51.844;6.582;2023-02-04T14:36:17;16.48;;;4.00;;
65737;SDS011;52478;51.844;6.582;2023-02-04T14:38:43;14.85;;;3.42;;
65737;SDS011;52478;51.844;6.582;2023-02-04T14:41:10;15.10;;;3.90;;
65737;SDS011;52478;51.844;6.582;2023-02-04T14:43:40;12.98;;;4.15;;
65737;SDS011;52478;51.844;6.582;2023-02-04T14:46:06;13.02;;;3.70;;
65737;SDS011;52478;51.844;6.582;2023-02-04T14:48:33;16.67;;;4.20;;
65737;SDS011;52478;51.844;6.582;2023-02-04T14:50:59;13.85;;;4.35;;
65737;SDS011;52478;51.844;6.582;2023-02-04T14:53:27;14.05;;;3.97;;
65737;SDS011;52478;51.844;6.582;2023-02-04T14:55:53;15.50;;;4.53;;
65737;SDS011;52478;51.844;6.582;2023-02-04T14:58:20;12.65;;;3.65;;
65737;SDS011;52478;51.844;6.582;2023-02-04T15:00:46;10.85;;;3.38;;
65737;SDS011;52478;51.844;6.582;2023-02-04T15:03:13;13.45;;;4.15;;
65737;SDS011;52478;51.844;6.582;2023-02-04T15:05:39;14.82;;;4.40;;